Hattiesburg Bobby L Chain Municipal Airport
KHBG : now visible

Airfield :











YOU CAN JOIN US ON...

 
LOGIN :

Register | Disclaimer

   EN    FR    IT 

 









Legend :    VFR   Marginal VFR   IFR   Intensive IFR   Very Intensive IFR
Visi :
Ceiling :
>= 8 km
>= 3000ft
5 to 8 km
1000 to 3000 ft
1500m to 5 km
500 to 1000 ft
800 to 1500m
200 to 500 ft
< 800m
< 200 ft
Symbols :   Thunderstorms  Fog  Heavy snow  Heavy precipitations  Wind > 20 kt






- Airport Elevation : 151 ft


KHBG - Hattiesburg Bobby L Chain Municipal

CURRENT METAR :
  • 130353Z AUTO 00000KT 10SM OVC006 09/08 A3019 RMK AO2 RAE0256B12E23 SLPNO P0001 T00890078

EXPIRED METARs :
  • 130253Z AUTO VRB03KT 10SM -RA OVC006 08/08 A3020 RMK AO2 RAB06 SLPNO P0000 60002 T00830078 56006
  • 130153Z AUTO 08004KT 10SM OVC006 08/07 A3020 RMK AO2 RAE13 CIG 004V008 SLPNO P0000 T00830072

TAF KHBG
Valid from the 13 at 00:00 until the 14 at 00:00 UTC


122340Z 1300/1324 05003KT 4SM -RA BR BKN004 OVC015
FM130700 09002KT 4SM -RA BR OVC003
FM131000 00000KT 1/2SM FG OVC003
FM131700 29003KT 1 1/2SM BR OVC003
FM131900 29003KT 6SM BR OVC007



MET'MAP, your aeronautical weather chart ! - Copyright ORBIFLY December 2007 - Disclaimer

ORBIFLY MET'MAP TEAM :

Programming & Development : Alexandra Zaïnal
Concept & original design : Baudouin d'Aumeries
Assistance for programming : Marc-Olivier Méhu
Technical & hardware support : Manuel Goepfert

Contact : metmap@orbifly.com




SOURCES & CREDITS :

   NOAA       Earth
Advisory